Welcome to Northern Hawkes Bay. New Zealand.
PWS Header
      nz Flag



Hit Counter


W3C Valid W3C Valid logo


    Wairoa

Select any of the Stations below to visit their websites.










Historic Data from Weather Underground
Select the location of interest below. Wairoa is the default. Please have patience, this Data is slow to load in.
Northern Hawkes Bay Historical Data
Daily Summary for February 19, 2017 Units:  English    Metric   Both
« Previous Day
Next Day »
Daily Weekly Monthly Yearly Custom
  High: Low: Average:
Temperature: 83.5 °F 63 °F 71.2 °F
Dew Point: 67.6 °F 61.7 °F 64.4 °F
Humidity: 99% 56% 81%
Wind Speed: 9.8mph 0mph 2.3mph
Wind Gust: 14.5mph - -
Wind- - East
Pressure: 30.3 in 30.2 in -
Precipitation: 0 in    
Historical Graphs
 
 
Tabular Data for February 19, 2017
Time Temperature Dew Point Pressure Wind Wind Speed Wind Gust Humidity Rainfall Rate (Hourly) solar
00:01 64.9 °F 64 °F 30.2 in Calm     97% 0.01 in 0 W/m2
00:06 64.8 °F 64.2 °F 30.2 in Calm     98% 0.01 in 0 W/m2
00:11 64.9 °F 64.4 °F 30.2 in Calm     98% 0.01 in 0 W/m2
00:16 64.8 °F 64.2 °F 30.2 in Calm     98% 0.01 in 0 W/m2
00:21 64.9 °F 64.4 °F 30.2 in NE 1.6 mph 2.2 mph 98% 0.01 in 0 W/m2
00:26 64.8 °F 64.2 °F 30.2 in Calm   2.2 mph 98% 0 in 0 W/m2
00:31 64.9 °F 64.4 °F 30.2 in Calm   2.2 mph 98% 0 in 0 W/m2
00:36 64.9 °F 64.4 °F 30.2 in Calm   0.7 mph 98% 0 in 0 W/m2
00:41 64.9 °F 64.4 °F 30.2 in Calm   2.2 mph 98% 0 in 0 W/m2
00:46 64.9 °F 64.4 °F 30.2 in Calm   2.2 mph 98% 0 in 0 W/m2
00:51 64.9 °F 64.8 °F 30.2 in Calm   0.7 mph 99% 0 in 0 W/m2
00:56 64.9 °F 64.8 °F 30.2 in Calm     99% 0 in 0 W/m2
01:01 64.9 °F 64.8 °F 30.2 in Calm   0.7 mph 99% 0 in 0 W/m2
01:06 64.9 °F 64.8 °F 30.2 in Calm   0.7 mph 99% 0 in 0 W/m2
01:11 64.9 °F 64.8 °F 30.2 in Calm     99% 0 in 0 W/m2
01:16 64.9 °F 64.8 °F 30.2 in Calm     99% 0 in 0 W/m2
01:21 64.9 °F 64.8 °F 30.2 in NE 1.6 mph 3.1 mph 99% 0 in 0 W/m2
01:27 64.9 °F 64.8 °F 30.2 in Calm   3.1 mph 99% 0 in 0 W/m2
01:32 64.9 °F 64.8 °F 30.2 in NE 3.1 mph 3.8 mph 99% 0 in 0 W/m2
01:37 64.9 °F 64.8 °F 30.2 in NE 1.6 mph 3.8 mph 99% 0 in 0 W/m2
01:42 64.9 °F 64.8 °F 30.2 in ENE 0.7 mph 3.8 mph 99% 0 in 0 W/m2
01:47 64.9 °F 64.8 °F 30.2 in Calm   2.2 mph 99% 0 in 0 W/m2
01:52 64.8 °F 64.6 °F 30.2 in Calm   1.6 mph 99% 0 in 0 W/m2
01:57 64.8 °F 64.6 °F 30.2 in Calm   1.6 mph 99% 0 in 0 W/m2
02:02 64.8 °F 64.6 °F 30.2 in Calm   1.6 mph 99% 0 in 0 W/m2
02:07 64.8 °F 64.6 °F 30.2 in Calm   0.7 mph 99% 0 in 0 W/m2
02:25 64.8 °F 64.6 °F 30.2 in Calm   1.6 mph 99% 0 in 0 W/m2
02:30 64.6 °F 64.2 °F 30.2 in Calm   1.6 mph 99% 0 in 0 W/m2
02:41 64.8 °F 64.6 °F 30.2 in Calm     99% 0 in 0 W/m2
02:46 64.8 °F 64.6 °F 30.2 in Calm     99% 0 in 0 W/m2
02:51 64.8 °F 64.6 °F 30.2 in Calm   1.6 mph 99% 0 in 0 W/m2
02:57 64.8 °F 64.6 °F 30.2 in Calm   0.7 mph 99% 0 in 0 W/m2
03:02 64.8 °F 64.6 °F 30.2 in Calm   0.7 mph 99% 0 in 0 W/m2
03:07 64.8 °F 64.6 °F 30.2 in Calm     99% 0 in 0 W/m2
03:12 64.8 °F 64.6 °F 30.2 in Calm     99% 0 in 0 W/m2
03:17 64.8 °F 64.6 °F 30.2 in Calm     99% 0 in 0 W/m2
03:22 64.8 °F 64.6 °F 30.2 in North 0.7 mph 2.2 mph 99% 0 in 0 W/m2
03:27 64.6 °F 64.2 °F 30.2 in Calm   2.2 mph 99% 0 in 0 W/m2
03:32 64.6 °F 64.2 °F 30.2 in Calm   2.2 mph 99% 0 in 0 W/m2
03:37 64.6 °F 64.2 °F 30.2 in Calm   1.6 mph 99% 0 in 0 W/m2
03:42 64.6 °F 64.2 °F 30.2 in ENE 1.6 mph 3.1 mph 99% 0 in 0 W/m2
03:47 64.6 °F 64.2 °F 30.2 in ENE 0.7 mph 3.8 mph 99% 0 in 0 W/m2
03:52 64.6 °F 64.2 °F 30.2 in Calm   3.8 mph 99% 0 in 0 W/m2
03:58 64.6 °F 64.2 °F 30.2 in Calm   1.6 mph 99% 0 in 0 W/m2
04:03 64.6 °F 64.2 °F 30.2 in ESE 0.7 mph 2.2 mph 99% 0 in 0 W/m2
04:09 64.6 °F 64.2 °F 30.2 in East 2.2 mph 4.5 mph 99% 0 in 0 W/m2
04:15 64.6 °F 64.2 °F 30.2 in East 0.7 mph 4.5 mph 99% 0 in 0 W/m2
04:20 64.6 °F 64.2 °F 30.2 in ENE 0.7 mph 2.2 mph 99% 0 in 0 W/m2
04:26 64.8 °F 64.6 °F 30.2 in Calm   2.2 mph 99% 0 in 0 W/m2
04:31 64.8 °F 64.6 °F 30.2 in Calm   2.2 mph 99% 0 in 0 W/m2
04:36 64.6 °F 64.2 °F 30.2 in ENE 1.6 mph 2.2 mph 99% 0 in 0 W/m2
04:41 64.6 °F 64.2 °F 30.2 in ENE 1.6 mph 3.1 mph 99% 0 in 0 W/m2
04:46 64.6 °F 64.2 °F 30.2 in ENE 0.7 mph 3.1 mph 99% 0 in 0 W/m2
04:51 64.6 °F 64 °F 30.2 in Calm   3.1 mph 98% 0 in 0 W/m2
04:56 64.4 °F 63.9 °F 30.2 in Calm   2.2 mph 98% 0 in 0 W/m2
05:01 64.4 °F 63.9 °F 30.2 in Calm   0.7 mph 98% 0 in 0 W/m2
05:06 64.4 °F 63.9 °F 30.2 in Calm   0.7 mph 98% 0 in 0 W/m2
05:11 64.2 °F 63.3 °F 30.2 in Calm   0.7 mph 97% 0 in 0 W/m2
05:17 64.2 °F 63.3 °F 30.2 in Calm     97% 0 in 0 W/m2
05:22 64.2 °F 63.3 °F 30.2 in Calm     97% 0 in 0 W/m2
05:28 64 °F 63.1 °F 30.2 in Calm   0.7 mph 97% 0 in 0 W/m2
05:33 64 °F 63.1 °F 30.2 in Calm   0.7 mph 97% 0 in 0 W/m2
05:38 64 °F 63.1 °F 30.2 in Calm     97% 0 in 0 W/m2
05:43 63.9 °F 63 °F 30.2 in Calm     97% 0 in 0 W/m2
05:48 63.9 °F 63 °F 30.2 in Calm     97% 0 in 0 W/m2
05:53 63.9 °F 63 °F 30.2 in Calm     97% 0 in 0 W/m2
05:56 63.9 °F 63 °F 30.2 in Calm     97% 0 in 0 W/m2
05:57 63.7 °F 62.8 °F 30.2 in Calm     97% 0 in 0 W/m2
06:00 63.7 °F 62.8 °F 30.2 in Calm     97% 0 in 0 W/m2
06:04 63.5 °F 62.8 °F 30.2 in Calm     97% 0 in 0 W/m2
06:07 63.7 °F 62.8 °F 30.2 in Calm     97% 0 in 0 W/m2
06:12 63.7 °F 62.8 °F 30.2 in Calm     97% 0 in 0 W/m2
06:17 63.7 °F 62.8 °F 30.2 in Calm     97% 0 in 0 W/m2
06:22 63.5 °F 62.8 °F 30.2 in Calm     97% 0 in 0 W/m2
06:27 63.5 °F 62.8 °F 30.2 in Calm     97% 0 in 0 W/m2
06:32 63.3 °F 62.4 °F 30.2 in Calm     97% 0 in 0 W/m2
06:37 63.3 °F 62.4 °F 30.2 in Calm     97% 0 in 0 W/m2
06:42 63.3 °F 62.4 °F 30.2 in Calm     97% 0 in 2 W/m2
06:47 63.1 °F 62.2 °F 30.2 in Calm     97% 0 in 4 W/m2
06:52 63.1 °F 62.2 °F 30.2 in Calm   0.7 mph 97% 0 in 9 W/m2
06:53 63.1 °F 62.2 °F 30.2 in Calm   0.7 mph 97% 0 in 9 W/m2
06:58 63 °F 62.1 °F 30.2 in Calm   0.7 mph 97% 0 in 14 W/m2
07:03 63 °F 62.1 °F 30.2 in Calm     97% 0 in 22 W/m2
07:08 63.3 °F 62.4 °F 30.2 in Calm     97% 0 in 37 W/m2
07:13 64 °F 63.1 °F 30.2 in Calm   1.6 mph 97% 0 in 65 W/m2
07:18 64.8 °F 64.6 °F 30.2 in NE 0.7 mph 2.2 mph 99% 0 in 57 W/m2
07:23 65.5 °F 65.1 °F 30.2 in Calm   2.2 mph 99% 0 in 63 W/m2
07:28 66 °F 65.8 °F 30.2 in NNE 1.6 mph 2.2 mph 99% 0 in 110 W/m2
07:33 66.7 °F 66.6 °F 30.2 in Calm   2.2 mph 99% 0 in 129 W/m2
07:38 68.2 °F 67.6 °F 30.2 in NNE 1.6 mph 2.2 mph 98% 0 in 138 W/m2
07:43 68.9 °F 67.6 °F 30.2 in North 0.7 mph 2.2 mph 96% 0 in 140 W/m2
07:48 69.4 °F 67.5 °F 30.2 in North 0.7 mph 2.2 mph 93% 0 in 144 W/m2
07:53 70.2 °F 66.6 °F 30.2 in NNE 0.7 mph 2.2 mph 88% 0 in 167 W/m2
07:58 70.5 °F 64.8 °F 30.2 in Calm   3.8 mph 82% 0 in 105 W/m2
08:03 70.5 °F 64.4 °F 30.2 in NNE 0.7 mph 3.8 mph 81% 0 in 78 W/m2
08:08 70.2 °F 64 °F 30.2 in Calm   2.2 mph 81% 0 in 175 W/m2
08:13 71.4 °F 66 °F 30.2 in Calm   1.6 mph 83% 0 in 203 W/m2
08:18 72.1 °F 66 °F 30.2 in Calm   2.2 mph 81% 0 in 207 W/m2
08:23 73.9 °F 65.8 °F 30.2 in NNE 1.6 mph 3.1 mph 76% 0 in 216 W/m2
08:28 74.1 °F 64.6 °F 30.2 in ENE 0.7 mph 3.1 mph 72% 0 in 228 W/m2
08:33 74.7 °F 64.2 °F 30.2 in ENE 2.2 mph 3.8 mph 70% 0 in 244 W/m2
08:38 74.7 °F 64.2 °F 30.2 in NE 0.7 mph 3.8 mph 70% 0 in 263 W/m2
08:43 75 °F 63.9 °F 30.2 in NE 3.1 mph 4.5 mph 68% 0 in 168 W/m2
08:48 73.4 °F 62.6 °F 30.2 in NE 3.1 mph 5.4 mph 69% 0 in 329 W/m2
09:07 74.7 °F 63.3 °F 30.2 in NE 2.2 mph 6.9 mph 68% 0 in 410 W/m2
09:12 75.2 °F 63.5 °F 30.2 in NE 1.6 mph 4.5 mph 67% 0 in 263 W/m2
09:17 75.4 °F 62.8 °F 30.2 in ENE 2.2 mph 4.5 mph 65% 0 in 290 W/m2
09:22 74.7 °F 63 °F 30.2 in ENE 1.6 mph 4.5 mph 67% 0 in 230 W/m2
09:27 73.8 °F 61.7 °F 30.2 in NNE 0.7 mph 3.8 mph 66% 0 in 207 W/m2
09:32 73.9 °F 62.8 °F 30.2 in Calm   3.8 mph 68% 0 in 334 W/m2
09:37 75.2 °F 62.8 °F 30.2 in NE 3.1 mph 4.5 mph 65% 0 in 389 W/m2
09:42 75.2 °F 62.8 °F 30.3 in NE 3.1 mph 6 mph 65% 0 in 435 W/m2
09:47 75.6 °F 62.6 °F 30.3 in NE 0.7 mph 6 mph 64% 0 in 146 W/m2
09:52 75 °F 63 °F 30.3 in East 2.2 mph 5.4 mph 66% 0 in 331 W/m2
09:57 73.6 °F 62.4 °F 30.3 in SE 1.6 mph 6 mph 68% 0 in 214 W/m2
10:02 73.6 °F 62.8 °F 30.3 in SSE 3.1 mph 6 mph 69% 0 in 525 W/m2
10:07 73.9 °F 62.8 °F 30.3 in SE 4.5 mph 6.9 mph 68% 0 in 533 W/m2
10:12 73.8 °F 62.6 °F 30.3 in SE 2.2 mph 6.9 mph 68% 0 in 524 W/m2
10:17 74.5 °F 63.3 °F 30.3 in SE 3.8 mph 6.9 mph 68% 0 in 544 W/m2
10:22 75.2 °F 63.9 °F 30.3 in SE 3.1 mph 7.6 mph 68% 0 in 550 W/m2
10:27 75 °F 64.2 °F 30.3 in SE 3.1 mph 8.3 mph 69% 0 in 565 W/m2
10:32 75.6 °F 64.2 °F 30.3 in SE 5.4 mph 8.3 mph 68% 0 in 583 W/m2
10:37 75.6 °F 64.8 °F 30.3 in ESE 3.1 mph 7.6 mph 69% 0 in 598 W/m2
10:42 75 °F 64.2 °F 30.3 in SE 2.2 mph 8.3 mph 69% 0 in 613 W/m2
10:47 75.2 °F 63.1 °F 30.3 in SSE 3.1 mph 8.3 mph 66% 0 in 632 W/m2
10:52 75.7 °F 63.7 °F 30.3 in SE 3.8 mph 7.6 mph 66% 0 in 646 W/m2
10:57 76.3 °F 63.7 °F 30.3 in SE 3.8 mph 6.9 mph 65% 0 in 670 W/m2
11:02 76.1 °F 64.8 °F 30.3 in SSE 6 mph 7.6 mph 68% 0 in 683 W/m2
11:07 76.1 °F 66 °F 30.3 in SSE 3.8 mph 7.6 mph 71% 0 in 700 W/m2
11:12 75.7 °F 65.7 °F 30.3 in SE 3.8 mph 9.2 mph 71% 0 in 713 W/m2
11:17 75.6 °F 64.8 °F 30.3 in SE 3.1 mph 9.2 mph 69% 0 in 727 W/m2
11:22 75.2 °F 64.8 °F 30.3 in SE 3.1 mph 8.3 mph 70% 0 in 744 W/m2
11:27 75.4 °F 64.9 °F 30.3 in SE 3.1 mph 8.3 mph 70% 0 in 759 W/m2
11:32 75.6 °F 65.5 °F 30.3 in SE 3.8 mph 7.6 mph 71% 0 in 783 W/m2
11:37 75.9 °F 65.5 °F 30.3 in SE 5.4 mph 6.9 mph 70% 0 in 805 W/m2
11:42 75.4 °F 64 °F 30.3 in SE 2.2 mph 8.3 mph 68% 0 in 820 W/m2
11:47 75 °F 64.6 °F 30.3 in SE 2.2 mph 11.4 mph 70% 0 in 834 W/m2
11:52 75 °F 65.5 °F 30.3 in ESE 3.8 mph 11.4 mph 72% 0 in 853 W/m2
11:57 75.2 °F 64.4 °F 30.3 in ESE 3.1 mph 8.3 mph 69% 0 in 869 W/m2
12:02 75.2 °F 64.4 °F 30.3 in SE 3.8 mph 8.3 mph 69% 0 in 888 W/m2
12:07 75.4 °F 64.6 °F 30.3 in SE 3.8 mph 9.2 mph 69% 0 in 902 W/m2
12:12 75.2 °F 64.8 °F 30.3 in ESE 5.4 mph 9.2 mph 70% 0 in 913 W/m2
12:17 74.7 °F 65.5 °F 30.2 in SE 5.4 mph 9.2 mph 73% 0 in 920 W/m2
12:22 74.7 °F 65.8 °F 30.2 in SE 3.8 mph 9.2 mph 74% 0 in 925 W/m2
12:27 74.7 °F 66.2 °F 30.2 in SE 3.8 mph 9.8 mph 75% 0 in 937 W/m2
12:32 75.2 °F 65.7 °F 30.2 in SE 5.4 mph 11.4 mph 72% 0 in 941 W/m2
12:37 75.4 °F 66.2 °F 30.2 in SE 4.5 mph 11.4 mph 73% 0 in 944 W/m2
12:42 75.6 °F 66.7 °F 30.2 in SSE 6 mph 9.2 mph 74% 0 in 954 W/m2
12:47 75.9 °F 66.7 °F 30.2 in SSE 4.5 mph 9.2 mph 73% 0 in 958 W/m2
12:52 75.7 °F 66.9 °F 30.2 in SE 5.4 mph 9.2 mph 74% 0 in 959 W/m2
12:57 74.7 °F 65.8 °F 30.2 in SE 2.2 mph 9.2 mph 74% 0 in 958 W/m2
13:02 74.7 °F 66.2 °F 30.2 in SSE 3.8 mph 9.2 mph 75% 0 in 958 W/m2
13:07 75.4 °F 66.2 °F 30.2 in SSE 5.4 mph 9.2 mph 73% 0 in 962 W/m2
13:12 75.2 °F 66.4 °F 30.2 in SE 3.8 mph 9.2 mph 74% 0 in 958 W/m2
13:17 75.6 °F 65.5 °F 30.2 in SE 5.4 mph 8.3 mph 71% 0 in 956 W/m2
13:22 76.6 °F 66.9 °F 30.2 in SE 5.4 mph 9.2 mph 72% 0 in 958 W/m2
13:27 76.8 °F 65.5 °F 30.2 in SSE 6 mph 9.2 mph 68% 0 in 957 W/m2
13:32 77 °F 65.1 °F 30.2 in SE 3.1 mph 9.2 mph 67% 0 in 947 W/m2
13:37 76.8 °F 65.8 °F 30.2 in SE 6.9 mph 9.8 mph 69% 0 in 942 W/m2
13:42 76.6 °F 65.7 °F 30.2 in SE 4.5 mph 11.4 mph 69% 0 in 936 W/m2
13:47 76.6 °F 65.7 °F 30.2 in SSE 5.4 mph 11.4 mph 69% 0 in 928 W/m2
13:52 76.6 °F 65.3 °F 30.2 in ESE 3.1 mph 10.7 mph 68% 0 in 921 W/m2
13:57 76.8 °F 65.5 °F 30.2 in ESE 3.8 mph 10.7 mph 68% 0 in 916 W/m2
14:02 76.6 °F 65.7 °F 30.2 in ESE 5.4 mph 13.6 mph 69% 0 in 904 W/m2
14:07 77 °F 65.1 °F 30.2 in ESE 2.2 mph 13.6 mph 67% 0 in 898 W/m2
14:12 77.2 °F 65.5 °F 30.2 in ESE 4.5 mph 9.2 mph 67% 0 in 895 W/m2
14:17 77.4 °F 65.1 °F 30.2 in SE 4.5 mph 9.8 mph 66% 0 in 889 W/m2
14:22 77.2 °F 65.5 °F 30.2 in SE 4.5 mph 9.8 mph 67% 0 in 887 W/m2
14:27 77 °F 65.1 °F 30.2 in ESE 4.5 mph 10.7 mph 67% 0 in 875 W/m2
14:32 76.6 °F 66.9 °F 30.2 in ESE 5.4 mph 10.7 mph 72% 0 in 873 W/m2
14:37 76.6 °F 65.7 °F 30.2 in ESE 6 mph 9.8 mph 69% 0 in 379 W/m2
14:42 76.8 °F 66.7 °F 30.2 in ESE 3.1 mph 9.8 mph 71% 0 in 928 W/m2
14:47 77.9 °F 66 °F 30.2 in SE 2.2 mph 10.7 mph 67% 0 in 875 W/m2
14:52 78.8 °F 66 °F 30.2 in ESE 1.6 mph 10.7 mph 65% 0 in 566 W/m2
14:57 79.9 °F 66.2 °F 30.2 in ESE 3.8 mph 7.6 mph 63% 0 in 440 W/m2
15:02 78.6 °F 65.8 °F 30.2 in SSE 4.5 mph 8.3 mph 65% 0 in 853 W/m2
15:07 77.7 °F 65.5 °F 30.2 in SSE 5.4 mph 9.2 mph 66% 0 in 390 W/m2
15:12 76.5 °F 65.7 °F 30.2 in SSE 5.4 mph 9.2 mph 69% 0 in 343 W/m2
15:17 76.3 °F 66.2 °F 30.2 in SSE 1.6 mph 8.3 mph 71% 0 in 315 W/m2
15:22 76.3 °F 65.8 °F 30.2 in SSE 3.8 mph 8.3 mph 70% 0 in 322 W/m2
15:27 76.3 °F 66.2 °F 30.2 in SSE 3.1 mph 8.3 mph 71% 0 in 213 W/m2
15:32 76.3 °F 65.8 °F 30.2 in SSE 1.6 mph 8.3 mph 70% 0 in 219 W/m2
15:37 76.8 °F 65.8 °F 30.2 in SE 3.8 mph 8.3 mph 69% 0 in 254 W/m2
15:42 77.7 °F 65.5 °F 30.2 in SE 3.1 mph 8.3 mph 66% 0 in 243 W/m2
15:47 77.9 °F 65.1 °F 30.2 in SE 3.1 mph 8.3 mph 65% 0 in 600 W/m2
15:52 80.1 °F 65.8 °F 30.2 in SE 3.8 mph 6.9 mph 62% 0 in 807 W/m2
15:57 81.5 °F 65.8 °F 30.2 in ESE 2.2 mph 7.6 mph 59% 0 in 810 W/m2
16:02 83.1 °F 66.4 °F 30.2 in East 2.2 mph 7.6 mph 57% 0 in 750 W/m2
16:07 83.5 °F 66.2 °F 30.2 in ESE 1.6 mph 7.6 mph 56% 0 in 524 W/m2
16:12 83.3 °F 66 °F 30.2 in SE 1.6 mph 7.6 mph 56% 0 in 310 W/m2
16:17 81.1 °F 65.5 °F 30.2 in SE 1.6 mph 6.9 mph 59% 0 in 343 W/m2
16:22 80.2 °F 66 °F 30.2 in SE 3.1 mph 6.9 mph 62% 0 in 314 W/m2
16:27 79.5 °F 65.8 °F 30.2 in ESE 3.8 mph 7.6 mph 63% 0 in 276 W/m2
16:32 79.5 °F 65.5 °F 30.2 in ESE 3.8 mph 8.3 mph 62% 0 in 254 W/m2
16:37 79.9 °F 66.2 °F 30.2 in ESE 2.2 mph 8.3 mph 63% 0 in 398 W/m2
16:42 81.9 °F 66.7 °F 30.2 in ESE 3.1 mph 8.3 mph 60% 0 in 359 W/m2
16:47 82.9 °F 65.7 °F 30.2 in ESE 1.6 mph 8.3 mph 56% 0 in 627 W/m2
16:52 82.9 °F 65.7 °F 30.2 in ESE 3.1 mph 8.3 mph 56% 0 in 601 W/m2
16:57 82.8 °F 65.5 °F 30.2 in ESE 3.1 mph 10.7 mph 56% 0 in 522 W/m2
17:02 82.4 °F 65.7 °F 30.2 in ESE 4.5 mph 10.7 mph 57% 0 in 467 W/m2
17:07 81.7 °F 64.9 °F 30.2 in ESE 3.1 mph 10.7 mph 57% 0 in 108 W/m2
17:12 80.6 °F 64.9 °F 30.2 in ESE 5.4 mph 8.3 mph 59% 0 in 97 W/m2
17:17 80.1 °F 64.9 °F 30.2 in East 6 mph 12.1 mph 60% 0 in 447 W/m2
17:22 81.1 °F 64 °F 30.2 in East 6 mph 12.1 mph 56% 0 in 94 W/m2
17:27 78.8 °F 63.9 °F 30.2 in ESE 8.3 mph 13 mph 60% 0 in 75 W/m2
17:32 77.9 °F 64.8 °F 30.2 in East 5.4 mph 13.6 mph 64% 0 in 108 W/m2
17:37 77.7 °F 65.1 °F 30.2 in East 3.8 mph 13.6 mph 65% 0 in 339 W/m2
17:42 79.2 °F 65.1 °F 30.2 in East 6.9 mph 11.4 mph 62% 0 in 337 W/m2
17:47 79.2 °F 63.7 °F 30.2 in ENE 9.8 mph 14.5 mph 59% 0 in 101 W/m2
17:52 77.4 °F 63.9 °F 30.2 in East 9.8 mph 14.5 mph 63% 0 in 99 W/m2
17:57 76.6 °F 64.6 °F 30.2 in East 5.4 mph 14.5 mph 66% 0 in 73 W/m2
18:02 76.1 °F 64.4 °F 30.2 in ENE 7.6 mph 14.5 mph 67% 0 in 56 W/m2
18:07 75.4 °F 64 °F 30.2 in ENE 7.6 mph 13 mph 68% 0 in 51 W/m2
18:12 75 °F 64.6 °F 30.2 in ENE 9.2 mph 13 mph 70% 0 in 47 W/m2
18:17 74.8 °F 64.4 °F 30.2 in ENE 6 mph 11.4 mph 70% 0 in 50 W/m2
18:22 74.5 °F 64.6 °F 30.2 in ENE 6.9 mph 11.4 mph 71% 0 in 52 W/m2
18:27 74.3 °F 64.2 °F 30.2 in ENE 6 mph 11.4 mph 71% 0 in 59 W/m2
18:32 74.1 °F 64.2 °F 30.2 in ENE 3.8 mph 10.7 mph 71% 0 in 57 W/m2
18:37 73.9 °F 64.4 °F 30.2 in ENE 3.8 mph 10.7 mph 72% 0 in 53 W/m2
18:42 73.8 °F 64.2 °F 30.2 in ENE 4.5 mph 9.8 mph 72% 0 in 51 W/m2
18:45 73.6 °F 64.4 °F 30.2 in East 3.8 mph 9.8 mph 73% 0 in 52 W/m2
18:50 73.4 °F 64.2 °F 30.2 in East 7.6 mph 12.1 mph 73% 0 in 53 W/m2
18:55 73.2 °F 64 °F 30.2 in East 3.8 mph 12.1 mph 73% 0 in 49 W/m2
19:00 73 °F 63.9 °F 30.2 in East 6.9 mph 10.7 mph 73% 0 in 45 W/m2
19:05 72.9 °F 63.7 °F 30.2 in ENE 4.5 mph 10.7 mph 73% 0 in 43 W/m2
19:10 72.9 °F 64 °F 30.2 in ENE 1.6 mph 10.7 mph 74% 0 in 43 W/m2
19:26 72.3 °F 64 °F 30.2 in ENE 2.2 mph 4.5 mph 75% 0 in 22 W/m2
19:31 72.1 °F 64.2 °F 30.2 in ENE 1.6 mph 4.5 mph 76% 0 in 21 W/m2
19:36 72 °F 64 °F 30.2 in ENE 1.6 mph 4.5 mph 76% 0 in 20 W/m2
19:41 71.8 °F 63.9 °F 30.2 in ENE 2.2 mph 4.5 mph 76% 0 in 17 W/m2
19:46 71.6 °F 64 °F 30.2 in ENE 2.2 mph 4.5 mph 77% 0 in 16 W/m2
19:51 71.6 °F 64 °F 30.2 in ENE 1.6 mph 3.1 mph 77% 0 in 13 W/m2
19:56 71.4 °F 64.2 °F 30.3 in East 1.6 mph 3.1 mph 78% 0 in 11 W/m2
20:01 71.2 °F 64.4 °F 30.3 in East 1.6 mph 3.1 mph 79% 0 in 6 W/m2
20:06 70.9 °F 64.4 °F 30.3 in East 1.6 mph 3.8 mph 80% 0 in 2 W/m2
20:11 70.5 °F 64.4 °F 30.3 in East 2.2 mph 3.8 mph 81% 0 in 0 W/m2
20:16 70.5 °F 64.8 °F 30.3 in East 6.9 mph 10.7 mph 82% 0 in 0 W/m2
20:21 70.9 °F 64.4 °F 30.3 in ENE 4.5 mph 10.7 mph 80% 0 in 0 W/m2
20:26 70.9 °F 64.4 °F 30.3 in ENE 5.4 mph 9.8 mph 80% 0 in 0 W/m2
20:31 71.1 °F 64.2 °F 30.3 in ENE 3.8 mph 10.7 mph 79% 0 in 0 W/m2
20:35 70.9 °F 64 °F 30.3 in NE 1.6 mph 10.7 mph 79% 0 in 0 W/m2
20:40 70.9 °F 64.4 °F 30.3 in ENE 2.2 mph 6 mph 80% 0 in 0 W/m2
20:45 70.5 °F 64.4 °F 30.3 in ENE 2.2 mph 6 mph 81% 0 in 0 W/m2
20:50 70.3 °F 64.2 °F 30.3 in East 4.5 mph 6 mph 81% 0 in 0 W/m2
20:55 70.3 °F 64.6 °F 30.3 in ENE 3.8 mph 10.7 mph 82% 0 in 0 W/m2
21:00 70.2 °F 64.4 °F 30.3 in ENE 3.1 mph 10.7 mph 82% 0 in 0 W/m2
21:05 70.2 °F 64.4 °F 30.3 in ENE 3.1 mph 6.9 mph 82% 0 in 0 W/m2
21:10 70.2 °F 64.4 °F 30.3 in ENE 3.8 mph 7.6 mph 82% 0 in 0 W/m2
21:16 70.2 °F 64.4 °F 30.3 in ENE 3.1 mph 8.3 mph 82% 0 in 0 W/m2
21:21 70.3 °F 64.2 °F 30.3 in NE 3.1 mph 10.7 mph 81% 0 in 0 W/m2
21:26 70.3 °F 64.2 °F 30.3 in NE 3.8 mph 10.7 mph 81% 0 in 0 W/m2
21:31 70.2 °F 64.4 °F 30.3 in ENE 3.1 mph 7.6 mph 82% 0 in 0 W/m2
21:36 70.2 °F 64.4 °F 30.3 in ENE 3.8 mph 6 mph 82% 0 in 0 W/m2
21:41 70 °F 64.2 °F 30.3 in ENE 2.2 mph 6 mph 82% 0 in 0 W/m2
21:46 69.6 °F 64.2 °F 30.3 in East 1.6 mph 6 mph 83% 0 in 0 W/m2
21:51 69.3 °F 64.2 °F 30.3 in Calm   4.5 mph 84% 0 in 0 W/m2
21:56 69.1 °F 64 °F 30.3 in Calm   2.2 mph 84% 0 in 0 W/m2
22:01 69.3 °F 64.6 °F 30.3 in Calm   2.2 mph 85% 0 in 0 W/m2
22:06 68.7 °F 64 °F 30.3 in East 0.7 mph 2.2 mph 85% 0 in 0 W/m2
22:11 68.5 °F 64.2 °F 30.3 in ESE 0.7 mph 2.2 mph 86% 0 in 0 W/m2
22:16 68.5 °F 64.2 °F 30.3 in East 0.7 mph 2.2 mph 86% 0 in 0 W/m2
22:21 68.2 °F 64.2 °F 30.3 in Calm   2.2 mph 87% 0 in 0 W/m2
22:26 68.4 °F 64.4 °F 30.3 in ENE 0.7 mph 2.2 mph 87% 0 in 0 W/m2
22:31 68.2 °F 64.2 °F 30.3 in ENE 3.1 mph 4.5 mph 87% 0 in 0 W/m2
22:36 68.4 °F 64.4 °F 30.3 in ENE 5.4 mph 9.8 mph 87% 0 in 0 W/m2
22:41 68.9 °F 64.2 °F 30.3 in ENE 3.1 mph 9.8 mph 85% 0 in 0 W/m2
22:46 69.3 °F 64.2 °F 30.3 in ENE 6 mph 9.8 mph 84% 0 in 0 W/m2
22:51 69.4 °F 64 °F 30.3 in ENE 3.8 mph 9.8 mph 83% 0 in 0 W/m2
22:56 69.4 °F 64 °F 30.3 in ENE 3.8 mph 6.9 mph 83% 0 in 0 W/m2
23:01 68.5 °F 63.1 °F 30.3 in ENE 2.2 mph 6 mph 83% 0 in 0 W/m2
23:06 69.1 °F 64 °F 30.3 in ENE 0.7 mph 5.4 mph 84% 0 in 0 W/m2
23:11 68.7 °F 63.7 °F 30.3 in Calm   4.5 mph 84% 0 in 0 W/m2
23:16 68.5 °F 63.5 °F 30.3 in ENE 0.7 mph 2.2 mph 84% 0 in 0 W/m2
23:21 68.4 °F 63.7 °F 30.3 in ENE 1.6 mph 3.1 mph 85% 0 in 0 W/m2
23:26 68.4 °F 63.7 °F 30.3 in ENE 1.6 mph 3.8 mph 85% 0 in 0 W/m2
23:31 68.4 °F 63.7 °F 30.3 in NE 0.7 mph 3.8 mph 85% 0 in 0 W/m2
23:36 68.4 °F 63.7 °F 30.3 in ENE 1.6 mph 3.8 mph 85% 0 in 0 W/m2
23:41 68.4 °F 64 °F 30.3 in ENE 1.6 mph 3.1 mph 86% 0 in 0 W/m2
23:46 68 °F 63.3 °F 30.3 in Calm   3.1 mph 85% 0 in 0 W/m2
23:51 67.6 °F 63.7 °F 30.3 in Calm   3.1 mph 87% 0 in 0 W/m2
23:56 67.5 °F 63.5 °F 30.3 in Calm   0.7 mph 87% 0 in 0 W/m2
Northern Hawkes Bay. New Zealand Historic Data
Compliments of Weather Underground - 2.25 mb